Terminal Aerodrome Forecast
Issued by NWS

Home | Current Version | Previous Version | Text Only | Print | Product List | Glossary On
Versions: 1 2 3 4 5 6 7 8 9 10 11 12 13 14 15 16 17 18 19 20 21 22 23 24 25 26 27 28 29 30 31 32 33 34 35 36 37 38 39 40 41 42 43 44 45 46 47 48 49 50
000
FTUS45 KGJT 041728
TAFASE
TAF
KASE 041728Z 0418/0518 36005KT P6SM SCT030 SCT070
     FM041900 35011G21KT P6SM VCSH FEW030 BKN060
      TEMPO 0419/0423 SCT060
     FM050100 33008KT P6SM SCT060
     FM050300 21005KT P6SM FEW060=

USA.gov is the U.S. government's official web portal to all federal, state and local government web resources and services.